»·PEaware :: DCM11 KBOI-KBTM

DCM11 :: KBOI-KBTM

FLIGHT INFORMATION

Flight Status: Arrived
Operator: DotCom
More flights by this operator :: More flights under this callsign
Pilot: Jose O. (25670)
Aircraft: AIRBUS A319
(A319)
More flights by this aircraft type
Origin: KBOI Boise Air Terminal/Gowen
United States
Destination: KBTM Mooney
United States
More flights between these airports :: More routes between these airports
Route: +GOWEN4 BOI PLUTO LKT FANID
File this flight plan on PilotEdge
Remarks: RMK / SIMBRIEF
Altitude:
(Current/Filed)
27,000ft
Speed:
(Current/Filed)
402kts
Departed: 22-May-20 06:49 PM
Arrived: 22-May-20 07:34 PM
Distance/Time
Traveled:
214nm/0:45
Distance/Time
To Go:
Arrived

Flight Plot

Page will automatically refresh every two minutes.


Map Options




Map Legend


Flown Route
Filed Route
Departure Airport
Arrival Airport
Navaid (VOR, NDB)
Fix

Horizontal Profiles

Position Reports

Time Latitude Longitude Heading Altitude Ground
Speed
22-May-20 18:11 43.570400 -116.228638 275 2842ft 0kts
22-May-20 18:12 43.570400 -116.228638 275 2842ft 0kts
22-May-20 18:13 43.570400 -116.228638 275 2842ft 0kts
22-May-20 18:14 43.570400 -116.228638 275 2842ft 0kts
22-May-20 18:15 43.570400 -116.228638 275 2842ft 0kts
22-May-20 18:16 43.570400 -116.228638 275 2842ft 0kts
22-May-20 18:17 43.570400 -116.228638 275 2842ft 0kts
22-May-20 18:18 43.570400 -116.228638 275 2842ft 0kts
22-May-20 18:19 43.570400 -116.228638 275 2842ft 0kts
22-May-20 18:20 43.570400 -116.228638 275 2842ft 0kts
22-May-20 18:21 43.570400 -116.228638 275 2842ft 0kts
22-May-20 18:22 43.570400 -116.228638 275 2842ft 0kts
22-May-20 18:23 43.570400 -116.228638 275 2842ft 0kts
22-May-20 18:24 43.570400 -116.228638 275 2842ft 0kts
22-May-20 18:25 43.570400 -116.228638 275 2842ft 0kts
22-May-20 18:26 43.570400 -116.228638 275 2842ft 0kts
22-May-20 18:27 43.570400 -116.228638 275 2842ft 0kts
22-May-20 18:28 43.570398 -116.228639 275 2842ft 0kts
22-May-20 18:29 43.570398 -116.228639 275 2842ft 0kts
22-May-20 18:30 43.570398 -116.228639 275 2842ft 0kts
22-May-20 18:31 43.570398 -116.228639 275 2842ft 0kts
22-May-20 18:32 43.570430 -116.229145 273 2841ft 10kts
22-May-20 18:33 43.570180 -116.230533 189 2839ft 0kts
22-May-20 18:34 43.570180 -116.230533 189 2839ft 0kts
22-May-20 18:35 43.570180 -116.230533 189 2839ft 0kts
22-May-20 18:36 43.570128 -116.230540 186 2839ft 2kts
22-May-20 18:37 43.569913 -116.230584 188 2839ft 0kts
22-May-20 18:38 43.569913 -116.230584 188 2839ft 0kts
22-May-20 18:39 43.569535 -116.230633 176 2840ft 11kts
22-May-20 18:40 43.567192 -116.224465 115 2849ft 22kts
22-May-20 18:41 43.564345 -116.216172 115 2858ft 25kts
22-May-20 18:42 43.561273 -116.207193 114 2868ft 25kts
22-May-20 18:43 43.559903 -116.203186 114 2873ft 0kts
22-May-20 18:44 43.559903 -116.203186 114 2873ft 0kts
22-May-20 18:45 43.559746 -116.202753 122 2873ft 5kts
22-May-20 18:46 43.559520 -116.202491 160 2873ft 0kts
22-May-20 18:47 43.559520 -116.202491 160 2873ft 0kts
22-May-20 18:48 43.559911 -116.206772 295 2866ft 82kts
22-May-20 18:49 43.563320 -116.265257 217 5188ft 203kts
22-May-20 18:50 43.502997 -116.288986 227 7851ft 274kts
22-May-20 18:51 43.440370 -116.345943 164 10731ft 304kts
22-May-20 18:52 43.416534 -116.244620 51 13492ft 357kts
22-May-20 18:53 43.510519 -116.204406 11 16182ft 375kts
22-May-20 18:54 43.598783 -116.129312 51 18538ft 386kts
22-May-20 18:55 43.675461 -116.021062 50 20852ft 401kts
22-May-20 18:56 43.755239 -115.909847 50 22956ft 414kts
22-May-20 18:57 43.837637 -115.794609 50 24813ft 427kts
22-May-20 18:58 43.922738 -115.674980 50 26362ft 445kts
22-May-20 18:59 44.010981 -115.550400 50 26891ft 452kts
22-May-20 19:00 44.099268 -115.425228 50 26893ft 452kts
22-May-20 19:01 44.185288 -115.303234 51 26891ft 452kts
22-May-20 19:02 44.273111 -115.177401 51 26893ft 453kts
22-May-20 19:03 44.361195 -115.050793 50 26918ft 455kts
22-May-20 19:04 44.449388 -114.923477 50 26933ft 457kts
22-May-20 19:05 44.537563 -114.795587 50 26134ft 449kts
22-May-20 19:06 44.623376 -114.670527 49 25152ft 439kts
22-May-20 19:07 44.707246 -114.547747 48 24164ft 430kts
22-May-20 19:08 44.789315 -114.427135 48 23906ft 427kts
22-May-20 19:09 44.868416 -114.310301 49 23903ft 403kts
22-May-20 19:10 44.945738 -114.195379 49 23704ft 404kts
22-May-20 19:11 45.023230 -114.080113 48 22541ft 400kts
22-May-20 19:12 45.103917 -113.975833 44 21060ft 390kts
22-May-20 19:13 45.183127 -113.873985 45 19570ft 379kts
22-May-20 19:14 45.260027 -113.773920 45 18086ft 369kts
22-May-20 19:15 45.334784 -113.676151 45 16563ft 361kts
22-May-20 19:16 45.407841 -113.580259 44 14976ft 353kts
22-May-20 19:18 45.478207 -113.487568 44 14283ft 343kts
22-May-20 19:19 45.537471 -113.389230 58 12907ft 308kts
22-May-20 19:20 45.581577 -113.295532 60 12904ft 278kts
22-May-20 19:21 45.624927 -113.203549 59 12915ft 279kts
22-May-20 19:22 45.668359 -113.111344 59 12917ft 280kts
22-May-20 19:23 45.716349 -113.009081 59 12911ft 301kts
22-May-20 19:24 45.760530 -112.914747 59 12584ft 281kts
22-May-20 19:25 45.803805 -112.821895 59 11890ft 278kts
22-May-20 19:26 45.846963 -112.729066 59 11876ft 280kts
22-May-20 19:27 45.877041 -112.629350 88 11527ft 272kts
22-May-20 19:28 45.894506 -112.518007 51 8312ft 257kts
22-May-20 19:29 45.957233 -112.498060 344 5588ft 228kts
22-May-20 19:30 45.982342 -112.556170 223 6869ft 249kts
22-May-20 19:31 45.923839 -112.559229 170 6804ft 193kts
22-May-20 19:32 45.907018 -112.519458 25 6263ft 170kts
22-May-20 19:33 45.946305 -112.493455 340 5558ft 165kts
22-May-20 19:34 45.957704 -112.499731 166 5523ft 37kts
22-May-20 19:35 45.955133 -112.501713 146 5533ft 0kts
22-May-20 19:35 45.955133 -112.501713 146 5533ft 0kts
22-May-20 19:37 45.954804 -112.501686 143 5534ft 0kts

Navigation Log

Ident Type
Flight plan parsing failed, navigation log unavailable